sensor_id;sensor_type;location;lat;lon;timestamp;temperature;humidity
39665;DHT22;26679;50.872;4.332;2023-06-26T00:01:12;25.00;88.90
39665;DHT22;26679;50.872;4.332;2023-06-26T00:03:38;24.90;89.30
39665;DHT22;26679;50.872;4.332;2023-06-26T00:06:03;24.80;89.30
39665;DHT22;26679;50.872;4.332;2023-06-26T00:08:29;24.70;89.90
39665;DHT22;26679;50.872;4.332;2023-06-26T00:10:54;24.60;90.10
39665;DHT22;26679;50.872;4.332;2023-06-26T00:13:20;24.60;90.10
39665;DHT22;26679;50.872;4.332;2023-06-26T00:15:45;24.50;90.10
39665;DHT22;26679;50.872;4.332;2023-06-26T00:18:11;24.40;90.10
39665;DHT22;26679;50.872;4.332;2023-06-26T00:20:36;24.20;90.20
39665;DHT22;26679;50.872;4.332;2023-06-26T00:23:02;24.10;90.50
39665;DHT22;26679;50.872;4.332;2023-06-26T00:25:35;24.20;90.50
39665;DHT22;26679;50.872;4.332;2023-06-26T00:28:01;24.10;90.70
39665;DHT22;26679;50.872;4.332;2023-06-26T00:30:26;23.90;90.30
39665;DHT22;26679;50.872;4.332;2023-06-26T00:32:52;23.80;90.40
39665;DHT22;26679;50.872;4.332;2023-06-26T00:35:18;23.70;90.50
39665;DHT22;26679;50.872;4.332;2023-06-26T00:37:44;23.70;90.60
39665;DHT22;26679;50.872;4.332;2023-06-26T00:40:09;23.70;90.70
39665;DHT22;26679;50.872;4.332;2023-06-26T00:42:35;23.50;90.80
39665;DHT22;26679;50.872;4.332;2023-06-26T00:45:00;23.40;90.90
39665;DHT22;26679;50.872;4.332;2023-06-26T00:47:26;23.30;90.70
39665;DHT22;26679;50.872;4.332;2023-06-26T00:49:54;23.20;90.70
39665;DHT22;26679;50.872;4.332;2023-06-26T00:52:20;23.20;90.20
39665;DHT22;26679;50.872;4.332;2023-06-26T00:54:45;23.10;90.10
39665;DHT22;26679;50.872;4.332;2023-06-26T00:57:11;23.10;90.00
39665;DHT22;26679;50.872;4.332;2023-06-26T00:59:37;23.00;90.00
39665;DHT22;26679;50.872;4.332;2023-06-26T01:02:03;22.60;90.00
39665;DHT22;26679;50.872;4.332;2023-06-26T01:04:28;22.90;89.80
39665;DHT22;26679;50.872;4.332;2023-06-26T01:06:58;22.80;90.10
39665;DHT22;26679;50.872;4.332;2023-06-26T01:09:24;22.70;90.10
39665;DHT22;26679;50.872;4.332;2023-06-26T01:11:50;22.60;90.20
39665;DHT22;26679;50.872;4.332;2023-06-26T01:14:16;22.50;90.50
39665;DHT22;26679;50.872;4.332;2023-06-26T01:16:41;22.50;90.50
39665;DHT22;26679;50.872;4.332;2023-06-26T01:19:18;22.40;90.70
39665;DHT22;26679;50.872;4.332;2023-06-26T01:21:50;22.50;90.70
39665;DHT22;26679;50.872;4.332;2023-06-26T01:24:17;22.50;90.80
39665;DHT22;26679;50.872;4.332;2023-06-26T01:26:52;22.50;90.80
39665;DHT22;26679;50.872;4.332;2023-06-26T01:29:18;22.40;90.90
39665;DHT22;26679;50.872;4.332;2023-06-26T01:31:44;22.40;91.10
39665;DHT22;26679;50.872;4.332;2023-06-26T01:34:11;22.40;91.40
39665;DHT22;26679;50.872;4.332;2023-06-26T01:36:37;22.50;91.40
39665;DHT22;26679;50.872;4.332;2023-06-26T01:39:03;22.40;91.60
39665;DHT22;26679;50.872;4.332;2023-06-26T01:41:28;22.40;91.70
39665;DHT22;26679;50.872;4.332;2023-06-26T01:44:02;22.40;91.90
39665;DHT22;26679;50.872;4.332;2023-06-26T01:52:07;22.10;92.60
39665;DHT22;26679;50.872;4.332;2023-06-26T01:54:31;22.00;92.90
39665;DHT22;26679;50.872;4.332;2023-06-26T01:56:58;22.00;93.20
39665;DHT22;26679;50.872;4.332;2023-06-26T01:59:24;21.90;93.30
39665;DHT22;26679;50.872;4.332;2023-06-26T02:01:52;21.90;93.60
39665;DHT22;26679;50.872;4.332;2023-06-26T02:04:17;21.90;93.80
39665;DHT22;26679;50.872;4.332;2023-06-26T02:06:43;21.80;93.90
39665;DHT22;26679;50.872;4.332;2023-06-26T02:09:08;21.80;94.30
39665;DHT22;26679;50.872;4.332;2023-06-26T02:11:34;21.80;94.40
39665;DHT22;26679;50.872;4.332;2023-06-26T02:13:59;21.80;94.70
39665;DHT22;26679;50.872;4.332;2023-06-26T02:16:25;21.70;94.80
39665;DHT22;26679;50.872;4.332;2023-06-26T02:18:50;21.70;95.10
39665;DHT22;26679;50.872;4.332;2023-06-26T02:21:16;21.70;95.30
39665;DHT22;26679;50.872;4.332;2023-06-26T02:23:41;21.70;95.40
39665;DHT22;26679;50.872;4.332;2023-06-26T02:26:07;21.70;95.60
39665;DHT22;26679;50.872;4.332;2023-06-26T02:28:32;21.70;95.80
39665;DHT22;26679;50.872;4.332;2023-06-26T02:30:59;21.50;96.10
39665;DHT22;26679;50.872;4.332;2023-06-26T02:33:24;21.50;96.40
39665;DHT22;26679;50.872;4.332;2023-06-26T02:35:50;21.50;96.50
39665;DHT22;26679;50.872;4.332;2023-06-26T02:38:16;21.60;96.70
39665;DHT22;26679;50.872;4.332;2023-06-26T02:40:41;21.60;96.80
39665;DHT22;26679;50.872;4.332;2023-06-26T02:43:07;21.60;97.10
39665;DHT22;26679;50.872;4.332;2023-06-26T02:45:32;21.60;97.20
39665;DHT22;26679;50.872;4.332;2023-06-26T02:47:58;21.40;97.50
39665;DHT22;26679;50.872;4.332;2023-06-26T02:50:23;21.50;97.80
39665;DHT22;26679;50.872;4.332;2023-06-26T02:52:49;21.40;98.10
39665;DHT22;26679;50.872;4.332;2023-06-26T02:55:18;21.20;98.50
39665;DHT22;26679;50.872;4.332;2023-06-26T02:57:44;21.20;98.80
39665;DHT22;26679;50.872;4.332;2023-06-26T03:00:09;21.30;99.10
39665;DHT22;26679;50.872;4.332;2023-06-26T03:02:36;21.20;99.30
39665;DHT22;26679;50.872;4.332;2023-06-26T03:05:02;21.10;99.70
39665;DHT22;26679;50.872;4.332;2023-06-26T03:07:28;21.10;99.90
39665;DHT22;26679;50.872;4.332;2023-06-26T03:09:53;21.10;99.90
39665;DHT22;26679;50.872;4.332;2023-06-26T03:12:19;21.00;99.90
39665;DHT22;26679;50.872;4.332;2023-06-26T03:14:44;20.90;99.90
39665;DHT22;26679;50.872;4.332;2023-06-26T03:17:10;20.90;99.90
39665;DHT22;26679;50.872;4.332;2023-06-26T03:19:35;20.90;99.90
39665;DHT22;26679;50.872;4.332;2023-06-26T03:22:01;20.90;99.90
39665;DHT22;26679;50.872;4.332;2023-06-26T03:24:27;20.90;99.90
39665;DHT22;26679;50.872;4.332;2023-06-26T03:26:52;20.90;99.90
39665;DHT22;26679;50.872;4.332;2023-06-26T03:29:18;20.90;99.90
39665;DHT22;26679;50.872;4.332;2023-06-26T03:31:43;20.80;99.90
39665;DHT22;26679;50.872;4.332;2023-06-26T03:34:09;20.80;99.90
39665;DHT22;26679;50.872;4.332;2023-06-26T03:36:34;20.70;99.90
39665;DHT22;26679;50.872;4.332;2023-06-26T03:39:00;20.70;99.90
39665;DHT22;26679;50.872;4.332;2023-06-26T03:41:26;20.70;99.90
39665;DHT22;26679;50.872;4.332;2023-06-26T03:43:51;20.60;99.90
39665;DHT22;26679;50.872;4.332;2023-06-26T03:46:17;20.60;99.90
39665;DHT22;26679;50.872;4.332;2023-06-26T03:48:42;20.50;99.90
39665;DHT22;26679;50.872;4.332;2023-06-26T03:51:08;20.40;99.90
39665;DHT22;26679;50.872;4.332;2023-06-26T03:53:33;20.30;99.90
39665;DHT22;26679;50.872;4.332;2023-06-26T03:55:59;20.20;99.90
39665;DHT22;26679;50.872;4.332;2023-06-26T03:58:25;20.30;99.90
39665;DHT22;26679;50.872;4.332;2023-06-26T04:00:50;20.30;99.90
39665;DHT22;26679;50.872;4.332;2023-06-26T04:03:16;20.30;99.90
39665;DHT22;26679;50.872;4.332;2023-06-26T04:05:42;20.40;99.90
39665;DHT22;26679;50.872;4.332;2023-06-26T04:08:07;20.40;99.90
39665;DHT22;26679;50.872;4.332;2023-06-26T04:10:33;20.30;99.90
39665;DHT22;26679;50.872;4.332;2023-06-26T04:12:58;20.30;99.90
39665;DHT22;26679;50.872;4.332;2023-06-26T04:15:24;20.30;99.90
39665;DHT22;26679;50.872;4.332;2023-06-26T04:17:49;20.30;99.90
39665;DHT22;26679;50.872;4.332;2023-06-26T04:20:15;20.20;99.90
39665;DHT22;26679;50.872;4.332;2023-06-26T04:22:40;20.00;99.90
39665;DHT22;26679;50.872;4.332;2023-06-26T04:25:06;20.00;99.90
39665;DHT22;26679;50.872;4.332;2023-06-26T04:27:32;20.00;99.90
39665;DHT22;26679;50.872;4.332;2023-06-26T04:29:57;20.00;99.90
39665;DHT22;26679;50.872;4.332;2023-06-26T04:32:23;20.00;99.90
39665;DHT22;26679;50.872;4.332;2023-06-26T04:34:48;20.00;99.90
39665;DHT22;26679;50.872;4.332;2023-06-26T04:37:14;20.00;99.90
39665;DHT22;26679;50.872;4.332;2023-06-26T04:39:42;20.00;99.90
39665;DHT22;26679;50.872;4.332;2023-06-26T04:42:07;19.90;99.90
39665;DHT22;26679;50.872;4.332;2023-06-26T04:44:33;20.00;99.90
39665;DHT22;26679;50.872;4.332;2023-06-26T04:46:59;19.90;99.90
39665;DHT22;26679;50.872;4.332;2023-06-26T04:49:24;19.70;99.90
39665;DHT22;26679;50.872;4.332;2023-06-26T04:51:50;19.70;99.90
39665;DHT22;26679;50.872;4.332;2023-06-26T04:54:16;19.80;99.90
39665;DHT22;26679;50.872;4.332;2023-06-26T04:56:41;19.70;99.90
39665;DHT22;26679;50.872;4.332;2023-06-26T04:59:07;19.60;99.90
39665;DHT22;26679;50.872;4.332;2023-06-26T05:01:32;19.70;99.90
39665;DHT22;26679;50.872;4.332;2023-06-26T05:03:58;19.70;99.90
39665;DHT22;26679;50.872;4.332;2023-06-26T05:06:24;19.70;99.90
39665;DHT22;26679;50.872;4.332;2023-06-26T05:08:49;19.80;99.90
39665;DHT22;26679;50.872;4.332;2023-06-26T05:11:15;19.80;99.90
39665;DHT22;26679;50.872;4.332;2023-06-26T05:13:41;19.70;99.90
39665;DHT22;26679;50.872;4.332;2023-06-26T05:16:07;19.70;99.90
39665;DHT22;26679;50.872;4.332;2023-06-26T05:18:34;19.60;99.90
39665;DHT22;26679;50.872;4.332;2023-06-26T05:21:00;19.60;99.90
39665;DHT22;26679;50.872;4.332;2023-06-26T05:23:25;19.70;99.90
39665;DHT22;26679;50.872;4.332;2023-06-26T05:25:52;19.60;99.90
39665;DHT22;26679;50.872;4.332;2023-06-26T05:28:18;19.60;99.90
39665;DHT22;26679;50.872;4.332;2023-06-26T05:30:43;19.60;99.90
39665;DHT22;26679;50.872;4.332;2023-06-26T05:33:13;19.50;99.90
39665;DHT22;26679;50.872;4.332;2023-06-26T05:35:39;19.40;99.90
39665;DHT22;26679;50.872;4.332;2023-06-26T05:38:06;19.40;99.90
39665;DHT22;26679;50.872;4.332;2023-06-26T05:40:31;19.30;99.90
39665;DHT22;26679;50.872;4.332;2023-06-26T05:42:57;19.20;99.90
39665;DHT22;26679;50.872;4.332;2023-06-26T05:45:23;19.30;99.90
39665;DHT22;26679;50.872;4.332;2023-06-26T05:47:48;19.50;99.90
39665;DHT22;26679;50.872;4.332;2023-06-26T05:50:16;19.50;99.90
39665;DHT22;26679;50.872;4.332;2023-06-26T05:52:45;19.60;99.90
39665;DHT22;26679;50.872;4.332;2023-06-26T05:55:11;19.40;99.90
39665;DHT22;26679;50.872;4.332;2023-06-26T05:57:37;19.40;99.90
39665;DHT22;26679;50.872;4.332;2023-06-26T06:00:03;19.50;99.90
39665;DHT22;26679;50.872;4.332;2023-06-26T06:02:31;19.60;99.90
39665;DHT22;26679;50.872;4.332;2023-06-26T06:04:56;19.70;99.90
39665;DHT22;26679;50.872;4.332;2023-06-26T06:07:22;19.80;99.90
39665;DHT22;26679;50.872;4.332;2023-06-26T06:09:47;20.00;99.90
39665;DHT22;26679;50.872;4.332;2023-06-26T06:12:12;20.00;99.90
39665;DHT22;26679;50.872;4.332;2023-06-26T06:14:38;19.90;99.90
39665;DHT22;26679;50.872;4.332;2023-06-26T06:17:04;19.80;99.90
39665;DHT22;26679;50.872;4.332;2023-06-26T06:19:29;19.80;99.90
39665;DHT22;26679;50.872;4.332;2023-06-26T06:21:54;19.90;99.90
39665;DHT22;26679;50.872;4.332;2023-06-26T06:24:20;19.90;99.90
39665;DHT22;26679;50.872;4.332;2023-06-26T06:26:45;19.90;99.90
39665;DHT22;26679;50.872;4.332;2023-06-26T06:29:11;19.80;99.90
39665;DHT22;26679;50.872;4.332;2023-06-26T06:31:36;19.80;99.90
39665;DHT22;26679;50.872;4.332;2023-06-26T06:34:02;19.90;99.90
39665;DHT22;26679;50.872;4.332;2023-06-26T06:36:27;20.00;99.90
39665;DHT22;26679;50.872;4.332;2023-06-26T06:38:53;20.10;99.90
39665;DHT22;26679;50.872;4.332;2023-06-26T06:41:19;20.20;99.90
39665;DHT22;26679;50.872;4.332;2023-06-26T06:43:44;20.10;99.90
39665;DHT22;26679;50.872;4.332;2023-06-26T06:46:10;20.10;99.90
39665;DHT22;26679;50.872;4.332;2023-06-26T06:48:35;20.10;99.90
39665;DHT22;26679;50.872;4.332;2023-06-26T06:51:01;20.20;99.90
39665;DHT22;26679;50.872;4.332;2023-06-26T06:53:27;20.20;99.90
39665;DHT22;26679;50.872;4.332;2023-06-26T06:55:53;20.30;99.40
39665;DHT22;26679;50.872;4.332;2023-06-26T06:58:18;20.30;99.50
39665;DHT22;26679;50.872;4.332;2023-06-26T07:00:48;20.50;99.10
39665;DHT22;26679;50.872;4.332;2023-06-26T07:03:13;20.70;98.80
39665;DHT22;26679;50.872;4.332;2023-06-26T07:05:40;20.90;98.20
39665;DHT22;26679;50.872;4.332;2023-06-26T07:08:06;21.00;97.80
39665;DHT22;26679;50.872;4.332;2023-06-26T07:10:31;20.90;97.40
39665;DHT22;26679;50.872;4.332;2023-06-26T07:12:57;21.00;97.20
39665;DHT22;26679;50.872;4.332;2023-06-26T07:15:22;20.90;96.90
39665;DHT22;26679;50.872;4.332;2023-06-26T07:17:48;20.80;96.90
39665;DHT22;26679;50.872;4.332;2023-06-26T07:20:13;20.80;96.80
39665;DHT22;26679;50.872;4.332;2023-06-26T07:22:42;20.90;96.90
39665;DHT22;26679;50.872;4.332;2023-06-26T07:25:08;21.10;96.60
39665;DHT22;26679;50.872;4.332;2023-06-26T07:27:36;21.00;96.30
39665;DHT22;26679;50.872;4.332;2023-06-26T07:30:02;21.10;96.30
39665;DHT22;26679;50.872;4.332;2023-06-26T07:32:28;21.20;96.30
39665;DHT22;26679;50.872;4.332;2023-06-26T07:34:53;21.30;96.00
39665;DHT22;26679;50.872;4.332;2023-06-26T07:37:19;21.30;95.90
39665;DHT22;26679;50.872;4.332;2023-06-26T07:39:44;21.50;95.50
39665;DHT22;26679;50.872;4.332;2023-06-26T07:42:10;21.40;95.20
39665;DHT22;26679;50.872;4.332;2023-06-26T07:44:35;21.60;95.20
39665;DHT22;26679;50.872;4.332;2023-06-26T07:47:01;21.60;95.40
39665;DHT22;26679;50.872;4.332;2023-06-26T07:49:27;21.70;95.10
39665;DHT22;26679;50.872;4.332;2023-06-26T07:51:52;21.90;94.80
39665;DHT22;26679;50.872;4.332;2023-06-26T07:54:18;21.70;94.80
39665;DHT22;26679;50.872;4.332;2023-06-26T07:59:20;21.70;94.30
39665;DHT22;26679;50.872;4.332;2023-06-26T08:01:47;21.70;94.20
39665;DHT22;26679;50.872;4.332;2023-06-26T08:04:13;21.70;94.10
39665;DHT22;26679;50.872;4.332;2023-06-26T08:06:38;21.70;93.80
39665;DHT22;26679;50.872;4.332;2023-06-26T08:09:08;21.70;93.60
39665;DHT22;26679;50.872;4.332;2023-06-26T08:11:33;21.70;93.70
39665;DHT22;26679;50.872;4.332;2023-06-26T08:13:59;21.70;93.50
39665;DHT22;26679;50.872;4.332;2023-06-26T08:16:25;21.70;93.60
39665;DHT22;26679;50.872;4.332;2023-06-26T08:18:50;21.90;93.50
39665;DHT22;26679;50.872;4.332;2023-06-26T08:21:16;22.10;92.50
39665;DHT22;26679;50.872;4.332;2023-06-26T08:23:41;22.10;92.20
39665;DHT22;26679;50.872;4.332;2023-06-26T08:26:07;22.10;92.40
39665;DHT22;26679;50.872;4.332;2023-06-26T08:28:33;22.10;92.60
39665;DHT22;26679;50.872;4.332;2023-06-26T08:30:58;22.30;92.60
39665;DHT22;26679;50.872;4.332;2023-06-26T08:33:24;22.20;92.60
39665;DHT22;26679;50.872;4.332;2023-06-26T08:35:50;22.30;92.50
39665;DHT22;26679;50.872;4.332;2023-06-26T08:38:15;22.40;92.30
39665;DHT22;26679;50.872;4.332;2023-06-26T08:40:41;22.30;92.50
39665;DHT22;26679;50.872;4.332;2023-06-26T08:43:06;22.30;92.60
39665;DHT22;26679;50.872;4.332;2023-06-26T08:45:32;22.20;92.70
39665;DHT22;26679;50.872;4.332;2023-06-26T08:47:59;22.20;92.00
39665;DHT22;26679;50.872;4.332;2023-06-26T08:50:28;22.30;92.20
39665;DHT22;26679;50.872;4.332;2023-06-26T08:53:01;22.50;92.10
39665;DHT22;26679;50.872;4.332;2023-06-26T08:55:29;22.60;91.10
39665;DHT22;26679;50.872;4.332;2023-06-26T08:57:57;22.60;90.20
39665;DHT22;26679;50.872;4.332;2023-06-26T09:00:22;22.60;90.10
39665;DHT22;26679;50.872;4.332;2023-06-26T09:02:48;22.80;90.00
39665;DHT22;26679;50.872;4.332;2023-06-26T09:05:15;22.60;90.10
39665;DHT22;26679;50.872;4.332;2023-06-26T09:07:40;22.50;89.90
39665;DHT22;26679;50.872;4.332;2023-06-26T09:10:06;22.50;89.70
39665;DHT22;26679;50.872;4.332;2023-06-26T09:12:31;22.60;90.20
39665;DHT22;26679;50.872;4.332;2023-06-26T09:14:57;22.80;89.30
39665;DHT22;26679;50.872;4.332;2023-06-26T09:17:29;22.70;89.40
39665;DHT22;26679;50.872;4.332;2023-06-26T09:19:55;22.50;88.80
39665;DHT22;26679;50.872;4.332;2023-06-26T09:22:20;22.60;88.50
39665;DHT22;26679;50.872;4.332;2023-06-26T09:24:47;22.60;88.00
39665;DHT22;26679;50.872;4.332;2023-06-26T09:27:12;22.60;87.80
39665;DHT22;26679;50.872;4.332;2023-06-26T09:29:38;22.60;88.30
39665;DHT22;26679;50.872;4.332;2023-06-26T09:32:04;22.60;89.00
39665;DHT22;26679;50.872;4.332;2023-06-26T09:34:30;22.70;88.80
39665;DHT22;26679;50.872;4.332;2023-06-26T09:36:56;23.00;89.20
39665;DHT22;26679;50.872;4.332;2023-06-26T09:39:21;23.70;86.20
39665;DHT22;26679;50.872;4.332;2023-06-26T09:41:47;25.00;80.60
39665;DHT22;26679;50.872;4.332;2023-06-26T09:44:13;25.60;78.10
39665;DHT22;26679;50.872;4.332;2023-06-26T09:46:39;25.70;78.30
39665;DHT22;26679;50.872;4.332;2023-06-26T09:49:06;26.10;77.20
39665;DHT22;26679;50.872;4.332;2023-06-26T09:51:32;26.10;76.50
39665;DHT22;26679;50.872;4.332;2023-06-26T09:53:58;26.10;76.70
39665;DHT22;26679;50.872;4.332;2023-06-26T09:56:23;26.40;76.60
39665;DHT22;26679;50.872;4.332;2023-06-26T09:58:49;26.90;74.80
39665;DHT22;26679;50.872;4.332;2023-06-26T10:01:15;26.50;75.80
39665;DHT22;26679;50.872;4.332;2023-06-26T10:03:40;26.90;75.70
39665;DHT22;26679;50.872;4.332;2023-06-26T10:06:08;27.40;74.40
39665;DHT22;26679;50.872;4.332;2023-06-26T10:08:34;27.50;74.00
39665;DHT22;26679;50.872;4.332;2023-06-26T10:11:01;27.30;72.90
39665;DHT22;26679;50.872;4.332;2023-06-26T10:13:31;27.40;72.70
39665;DHT22;26679;50.872;4.332;2023-06-26T10:15:59;27.60;72.80
39665;DHT22;26679;50.872;4.332;2023-06-26T10:18:25;28.40;72.00
39665;DHT22;26679;50.872;4.332;2023-06-26T10:20:53;28.70;70.30
39665;DHT22;26679;50.872;4.332;2023-06-26T10:23:20;28.70;70.80
39665;DHT22;26679;50.872;4.332;2023-06-26T10:25:46;28.70;69.80
39665;DHT22;26679;50.872;4.332;2023-06-26T10:28:13;28.70;70.20
39665;DHT22;26679;50.872;4.332;2023-06-26T10:30:40;28.80;69.00
39665;DHT22;26679;50.872;4.332;2023-06-26T10:33:06;29.60;68.40
39665;DHT22;26679;50.872;4.332;2023-06-26T10:35:32;28.90;68.50
39665;DHT22;26679;50.872;4.332;2023-06-26T10:38:02;27.90;69.30
39665;DHT22;26679;50.872;4.332;2023-06-26T10:40:33;27.50;71.10
39665;DHT22;26679;50.872;4.332;2023-06-26T10:43:08;27.30;71.70
39665;DHT22;26679;50.872;4.332;2023-06-26T10:45:34;27.60;71.20
39665;DHT22;26679;50.872;4.332;2023-06-26T10:48:00;28.00;71.10
39665;DHT22;26679;50.872;4.332;2023-06-26T10:50:27;27.90;70.40
39665;DHT22;26679;50.872;4.332;2023-06-26T10:55:30;27.10;71.10
39665;DHT22;26679;50.872;4.332;2023-06-26T10:57:55;27.50;71.00
39665;DHT22;26679;50.872;4.332;2023-06-26T11:00:20;27.40;70.70
39665;DHT22;26679;50.872;4.332;2023-06-26T11:10:29;27.30;71.70
39665;DHT22;26679;50.872;4.332;2023-06-26T11:12:54;26.90;72.40
39665;DHT22;26679;50.872;4.332;2023-06-26T11:15:24;26.70;73.50
39665;DHT22;26679;50.872;4.332;2023-06-26T11:17:49;26.70;73.50
39665;DHT22;26679;50.872;4.332;2023-06-26T11:20:18;26.70;73.30
39665;DHT22;26679;50.872;4.332;2023-06-26T11:22:44;27.20;73.00
39665;DHT22;26679;50.872;4.332;2023-06-26T11:25:10;27.30;72.70
39665;DHT22;26679;50.872;4.332;2023-06-26T11:27:42;26.80;72.90
39665;DHT22;26679;50.872;4.332;2023-06-26T11:30:08;26.80;73.60
39665;DHT22;26679;50.872;4.332;2023-06-26T11:32:34;26.70;74.00
39665;DHT22;26679;50.872;4.332;2023-06-26T11:34:59;27.40;73.80
39665;DHT22;26679;50.872;4.332;2023-06-26T11:37:25;27.50;72.80
39665;DHT22;26679;50.872;4.332;2023-06-26T11:39:51;27.40;71.90
39665;DHT22;26679;50.872;4.332;2023-06-26T11:42:17;28.30;72.40
39665;DHT22;26679;50.872;4.332;2023-06-26T11:44:43;29.90;68.90
39665;DHT22;26679;50.872;4.332;2023-06-26T11:49:44;29.20;67.80
39665;DHT22;26679;50.872;4.332;2023-06-26T11:52:09;28.10;68.80
39665;DHT22;26679;50.872;4.332;2023-06-26T11:54:35;27.50;69.20
39665;DHT22;26679;50.872;4.332;2023-06-26T11:57:01;28.20;68.10
39665;DHT22;26679;50.872;4.332;2023-06-26T12:02:06;30.80;67.60
39665;DHT22;26679;50.872;4.332;2023-06-26T12:04:32;32.10;65.50
39665;DHT22;26679;50.872;4.332;2023-06-26T12:06:58;32.50;64.80
39665;DHT22;26679;50.872;4.332;2023-06-26T12:09:25;32.60;63.60
39665;DHT22;26679;50.872;4.332;2023-06-26T12:11:52;31.80;62.90
39665;DHT22;26679;50.872;4.332;2023-06-26T12:14:19;31.70;62.10
39665;DHT22;26679;50.872;4.332;2023-06-26T12:16:44;31.30;62.30
39665;DHT22;26679;50.872;4.332;2023-06-26T12:19:10;31.40;61.90
39665;DHT22;26679;50.872;4.332;2023-06-26T12:24:08;31.90;62.20
39665;DHT22;26679;50.872;4.332;2023-06-26T12:26:34;30.30;63.00
39665;DHT22;26679;50.872;4.332;2023-06-26T12:29:08;30.00;64.20
39665;DHT22;26679;50.872;4.332;2023-06-26T12:31:34;30.50;62.50
39665;DHT22;26679;50.872;4.332;2023-06-26T12:34:01;30.60;61.60
39665;DHT22;26679;50.872;4.332;2023-06-26T12:36:26;30.60;62.80
39665;DHT22;26679;50.872;4.332;2023-06-26T12:38:52;31.10;62.40
39665;DHT22;26679;50.872;4.332;2023-06-26T12:41:18;31.30;62.60
39665;DHT22;26679;50.872;4.332;2023-06-26T12:43:45;31.70;62.00
39665;DHT22;26679;50.872;4.332;2023-06-26T12:46:11;31.70;62.40
39665;DHT22;26679;50.872;4.332;2023-06-26T12:48:39;31.50;62.00
39665;DHT22;26679;50.872;4.332;2023-06-26T12:51:13;30.30;63.40
39665;DHT22;26679;50.872;4.332;2023-06-26T12:53:38;29.40;64.70
39665;DHT22;26679;50.872;4.332;2023-06-26T12:56:10;28.60;66.10
39665;DHT22;26679;50.872;4.332;2023-06-26T12:58:37;28.50;66.30
39665;DHT22;26679;50.872;4.332;2023-06-26T13:01:06;28.30;65.80
39665;DHT22;26679;50.872;4.332;2023-06-26T13:03:42;27.90;66.30
39665;DHT22;26679;50.872;4.332;2023-06-26T13:06:08;27.80;66.80
39665;DHT22;26679;50.872;4.332;2023-06-26T13:08:34;27.70;66.80
39665;DHT22;26679;50.872;4.332;2023-06-26T13:10:59;27.70;66.90
39665;DHT22;26679;50.872;4.332;2023-06-26T13:13:25;27.80;66.90
39665;DHT22;26679;50.872;4.332;2023-06-26T13:15:51;27.50;67.20
39665;DHT22;26679;50.872;4.332;2023-06-26T13:18:16;27.30;67.50
39665;DHT22;26679;50.872;4.332;2023-06-26T13:20:42;27.00;68.20
39665;DHT22;26679;50.872;4.332;2023-06-26T13:23:07;27.00;68.50
39665;DHT22;26679;50.872;4.332;2023-06-26T13:25:33;27.90;68.40
39665;DHT22;26679;50.872;4.332;2023-06-26T13:27:58;29.50;66.10
39665;DHT22;26679;50.872;4.332;2023-06-26T13:30:24;30.10;64.90
39665;DHT22;26679;50.872;4.332;2023-06-26T13:32:49;30.30;64.30
39665;DHT22;26679;50.872;4.332;2023-06-26T13:35:15;30.80;64.00
39665;DHT22;26679;50.872;4.332;2023-06-26T13:37:41;30.80;62.40
39665;DHT22;26679;50.872;4.332;2023-06-26T13:40:08;30.20;63.30
39665;DHT22;26679;50.872;4.332;2023-06-26T13:42:34;30.30;63.40
39665;DHT22;26679;50.872;4.332;2023-06-26T13:45:01;30.00;63.90
39665;DHT22;26679;50.872;4.332;2023-06-26T13:47:28;30.30;64.10
39665;DHT22;26679;50.872;4.332;2023-06-26T13:49:54;31.30;63.70
39665;DHT22;26679;50.872;4.332;2023-06-26T13:52:19;32.20;63.40
39665;DHT22;26679;50.872;4.332;2023-06-26T13:54:45;32.50;62.50
39665;DHT22;26679;50.872;4.332;2023-06-26T13:57:10;32.70;62.40
39665;DHT22;26679;50.872;4.332;2023-06-26T13:59:37;32.00;62.00
39665;DHT22;26679;50.872;4.332;2023-06-26T14:02:02;31.10;62.00
39665;DHT22;26679;50.872;4.332;2023-06-26T14:04:29;31.50;62.10
39665;DHT22;26679;50.872;4.332;2023-06-26T14:06:55;32.10;61.60
39665;DHT22;26679;50.872;4.332;2023-06-26T14:09:20;32.70;60.10
39665;DHT22;26679;50.872;4.332;2023-06-26T14:11:47;32.70;60.10
39665;DHT22;26679;50.872;4.332;2023-06-26T14:14:12;32.30;59.80
39665;DHT22;26679;50.872;4.332;2023-06-26T14:16:38;32.10;58.80
39665;DHT22;26679;50.872;4.332;2023-06-26T14:19:05;31.60;59.10
39665;DHT22;26679;50.872;4.332;2023-06-26T14:21:31;31.60;59.00
39665;DHT22;26679;50.872;4.332;2023-06-26T14:23:56;31.50;59.50
39665;DHT22;26679;50.872;4.332;2023-06-26T14:26:22;31.10;60.00
39665;DHT22;26679;50.872;4.332;2023-06-26T14:28:47;31.10;59.90
39665;DHT22;26679;50.872;4.332;2023-06-26T14:31:13;31.30;60.00
39665;DHT22;26679;50.872;4.332;2023-06-26T14:33:38;30.50;61.90
39665;DHT22;26679;50.872;4.332;2023-06-26T14:36:04;30.80;62.40
39665;DHT22;26679;50.872;4.332;2023-06-26T14:38:29;31.10;62.40
39665;DHT22;26679;50.872;4.332;2023-06-26T14:40:55;31.50;60.70
39665;DHT22;26679;50.872;4.332;2023-06-26T14:43:21;31.00;61.00
39665;DHT22;26679;50.872;4.332;2023-06-26T14:45:47;30.60;61.50
39665;DHT22;26679;50.872;4.332;2023-06-26T14:48:12;30.00;62.10
39665;DHT22;26679;50.872;4.332;2023-06-26T14:50:38;29.70;62.70
39665;DHT22;26679;50.872;4.332;2023-06-26T14:53:03;29.20;63.60
39665;DHT22;26679;50.872;4.332;2023-06-26T14:55:29;28.80;64.70
39665;DHT22;26679;50.872;4.332;2023-06-26T14:57:55;28.40;65.40
39665;DHT22;26679;50.872;4.332;2023-06-26T15:00:20;28.30;65.30
39665;DHT22;26679;50.872;4.332;2023-06-26T15:02:46;28.10;66.10
39665;DHT22;26679;50.872;4.332;2023-06-26T15:05:12;28.00;65.80
39665;DHT22;26679;50.872;4.332;2023-06-26T15:07:37;27.80;65.50
39665;DHT22;26679;50.872;4.332;2023-06-26T15:10:03;27.60;66.10
39665;DHT22;26679;50.872;4.332;2023-06-26T15:12:28;27.70;66.30
39665;DHT22;26679;50.872;4.332;2023-06-26T15:14:54;27.50;66.50
39665;DHT22;26679;50.872;4.332;2023-06-26T15:17:20;27.50;66.80
39665;DHT22;26679;50.872;4.332;2023-06-26T15:19:45;28.00;66.90
39665;DHT22;26679;50.872;4.332;2023-06-26T15:22:11;28.20;66.90
39665;DHT22;26679;50.872;4.332;2023-06-26T15:24:36;28.30;67.20
39665;DHT22;26679;50.872;4.332;2023-06-26T15:27:02;28.40;66.80
39665;DHT22;26679;50.872;4.332;2023-06-26T15:29:27;29.00;66.70
39665;DHT22;26679;50.872;4.332;2023-06-26T15:31:53;29.40;66.10
39665;DHT22;26679;50.872;4.332;2023-06-26T15:34:21;29.50;65.70
39665;DHT22;26679;50.872;4.332;2023-06-26T15:36:48;29.40;65.70
39665;DHT22;26679;50.872;4.332;2023-06-26T15:39:13;29.10;65.80
39665;DHT22;26679;50.872;4.332;2023-06-26T15:41:39;28.60;66.60
39665;DHT22;26679;50.872;4.332;2023-06-26T15:44:04;28.40;67.00
39665;DHT22;26679;50.872;4.332;2023-06-26T15:46:30;28.20;67.20
39665;DHT22;26679;50.872;4.332;2023-06-26T15:48:55;28.40;67.20